sensor_id;sensor_type;location;lat;lon;timestamp;temperature;humidity
52709;DHT22;38606;52.986;6.980;2022-08-23T00:01:27;17.70;99.90
52709;DHT22;38606;52.986;6.980;2022-08-23T00:03:54;17.60;99.90
52709;DHT22;38606;52.986;6.980;2022-08-23T00:06:21;15.80;99.90
52709;DHT22;38606;52.986;6.980;2022-08-23T00:08:49;17.70;99.90
52709;DHT22;38606;52.986;6.980;2022-08-23T00:11:46;17.60;99.90
52709;DHT22;38606;52.986;6.980;2022-08-23T00:16:41;17.50;99.90
52709;DHT22;38606;52.986;6.980;2022-08-23T00:19:09;17.50;99.90
52709;DHT22;38606;52.986;6.980;2022-08-23T00:21:36;17.40;99.90
52709;DHT22;38606;52.986;6.980;2022-08-23T00:24:04;17.30;99.90
52709;DHT22;38606;52.986;6.980;2022-08-23T00:27:00;17.20;99.90
52709;DHT22;38606;52.986;6.980;2022-08-23T00:29:53;17.30;99.90
52709;DHT22;38606;52.986;6.980;2022-08-23T00:32:22;17.30;99.90
52709;DHT22;38606;52.986;6.980;2022-08-23T00:34:49;17.40;99.90
52709;DHT22;38606;52.986;6.980;2022-08-23T00:37:16;17.20;99.90
52709;DHT22;38606;52.986;6.980;2022-08-23T00:39:43;17.20;99.90
52709;DHT22;38606;52.986;6.980;2022-08-23T00:42:25;17.40;99.90
52709;DHT22;38606;52.986;6.980;2022-08-23T00:45:15;17.10;99.90
52709;DHT22;38606;52.986;6.980;2022-08-23T00:48:02;17.60;99.90
52709;DHT22;38606;52.986;6.980;2022-08-23T00:51:02;17.30;99.90
52709;DHT22;38606;52.986;6.980;2022-08-23T00:53:33;17.10;99.90
52709;DHT22;38606;52.986;6.980;2022-08-23T00:56:01;17.20;99.90
52709;DHT22;38606;52.986;6.980;2022-08-23T00:58:30;17.00;99.90
52709;DHT22;38606;52.986;6.980;2022-08-23T01:00:58;16.90;99.90
52709;DHT22;38606;52.986;6.980;2022-08-23T01:03:26;17.10;99.90
52709;DHT22;38606;52.986;6.980;2022-08-23T01:06:13;17.20;99.90
52709;DHT22;38606;52.986;6.980;2022-08-23T01:08:42;16.90;99.90
52709;DHT22;38606;52.986;6.980;2022-08-23T01:14:07;17.00;99.90
52709;DHT22;38606;52.986;6.980;2022-08-23T01:16:44;17.00;99.90
52709;DHT22;38606;52.986;6.980;2022-08-23T01:19:37;16.90;99.90
52709;DHT22;38606;52.986;6.980;2022-08-23T01:22:18;17.10;99.90
52709;DHT22;38606;52.986;6.980;2022-08-23T01:24:44;17.00;99.90
52709;DHT22;38606;52.986;6.980;2022-08-23T01:27:12;17.00;99.90
52709;DHT22;38606;52.986;6.980;2022-08-23T01:29:40;16.90;99.90
52709;DHT22;38606;52.986;6.980;2022-08-23T01:32:07;17.00;99.90
52709;DHT22;38606;52.986;6.980;2022-08-23T01:34:34;16.80;99.90
52709;DHT22;38606;52.986;6.980;2022-08-23T01:37:04;16.90;99.90
52709;DHT22;38606;52.986;6.980;2022-08-23T01:39:30;16.70;99.90
52709;DHT22;38606;52.986;6.980;2022-08-23T01:41:56;16.60;99.90
52709;DHT22;38606;52.986;6.980;2022-08-23T01:44:22;16.70;99.90
52709;DHT22;38606;52.986;6.980;2022-08-23T01:46:48;16.90;99.90
52709;DHT22;38606;52.986;6.980;2022-08-23T01:49:14;16.70;99.90
52709;DHT22;38606;52.986;6.980;2022-08-23T01:51:40;16.80;99.90
52709;DHT22;38606;52.986;6.980;2022-08-23T01:54:06;16.10;99.90
52709;DHT22;38606;52.986;6.980;2022-08-23T01:56:33;16.90;99.90
52709;DHT22;38606;52.986;6.980;2022-08-23T01:58:59;16.60;99.90
52709;DHT22;38606;52.986;6.980;2022-08-23T02:01:25;16.60;99.90
52709;DHT22;38606;52.986;6.980;2022-08-23T02:03:50;16.70;99.90
52709;DHT22;38606;52.986;6.980;2022-08-23T02:06:16;16.60;99.90
52709;DHT22;38606;52.986;6.980;2022-08-23T02:08:43;16.70;99.90
52709;DHT22;38606;52.986;6.980;2022-08-23T02:11:30;16.70;99.90
52709;DHT22;38606;52.986;6.980;2022-08-23T02:13:58;16.60;99.90
52709;DHT22;38606;52.986;6.980;2022-08-23T02:16:37;16.60;99.90
52709;DHT22;38606;52.986;6.980;2022-08-23T02:19:06;16.60;99.90
52709;DHT22;38606;52.986;6.980;2022-08-23T02:21:33;16.50;99.90
52709;DHT22;38606;52.986;6.980;2022-08-23T02:24:09;16.60;99.90
52709;DHT22;38606;52.986;6.980;2022-08-23T02:26:41;16.60;99.90
52709;DHT22;38606;52.986;6.980;2022-08-23T02:29:07;16.70;99.90
52709;DHT22;38606;52.986;6.980;2022-08-23T02:31:33;16.60;99.90
52709;DHT22;38606;52.986;6.980;2022-08-23T02:34:00;16.50;99.90
52709;DHT22;38606;52.986;6.980;2022-08-23T02:36:27;16.60;99.90
52709;DHT22;38606;52.986;6.980;2022-08-23T02:38:54;16.50;99.90
52709;DHT22;38606;52.986;6.980;2022-08-23T02:41:20;16.40;99.90
52709;DHT22;38606;52.986;6.980;2022-08-23T02:43:46;16.40;99.90
52709;DHT22;38606;52.986;6.980;2022-08-23T02:46:12;18.40;99.90
52709;DHT22;38606;52.986;6.980;2022-08-23T02:48:37;16.40;99.90
52709;DHT22;38606;52.986;6.980;2022-08-23T02:51:06;16.30;99.90
52709;DHT22;38606;52.986;6.980;2022-08-23T02:53:33;16.40;99.90
52709;DHT22;38606;52.986;6.980;2022-08-23T02:55:59;16.40;99.90
52709;DHT22;38606;52.986;6.980;2022-08-23T02:58:25;16.30;99.90
52709;DHT22;38606;52.986;6.980;2022-08-23T03:00:52;16.30;99.90
52709;DHT22;38606;52.986;6.980;2022-08-23T03:03:19;16.30;99.90
52709;DHT22;38606;52.986;6.980;2022-08-23T03:05:45;16.60;99.90
52709;DHT22;38606;52.986;6.980;2022-08-23T03:08:12;16.10;99.90
52709;DHT22;38606;52.986;6.980;2022-08-23T03:10:42;16.20;99.90
52709;DHT22;38606;52.986;6.980;2022-08-23T03:13:08;16.40;99.90
52709;DHT22;38606;52.986;6.980;2022-08-23T03:15:34;16.10;99.90
52709;DHT22;38606;52.986;6.980;2022-08-23T03:17:59;16.20;99.90
52709;DHT22;38606;52.986;6.980;2022-08-23T03:20:25;16.20;99.90
52709;DHT22;38606;52.986;6.980;2022-08-23T03:22:51;16.30;99.90
52709;DHT22;38606;52.986;6.980;2022-08-23T03:25:16;16.10;99.90
52709;DHT22;38606;52.986;6.980;2022-08-23T03:27:42;16.00;99.90
52709;DHT22;38606;52.986;6.980;2022-08-23T03:30:08;16.20;99.90
52709;DHT22;38606;52.986;6.980;2022-08-23T03:32:34;16.20;99.90
52709;DHT22;38606;52.986;6.980;2022-08-23T03:35:00;16.10;99.90
52709;DHT22;38606;52.986;6.980;2022-08-23T03:37:25;15.90;99.90
52709;DHT22;38606;52.986;6.980;2022-08-23T03:39:51;16.20;99.90
52709;DHT22;38606;52.986;6.980;2022-08-23T03:42:17;16.40;99.90
52709;DHT22;38606;52.986;6.980;2022-08-23T03:44:44;16.00;99.90
52709;DHT22;38606;52.986;6.980;2022-08-23T03:47:09;16.20;99.90
52709;DHT22;38606;52.986;6.980;2022-08-23T03:49:35;15.90;99.90
52709;DHT22;38606;52.986;6.980;2022-08-23T03:52:03;15.90;99.90
52709;DHT22;38606;52.986;6.980;2022-08-23T03:54:28;15.70;99.90
52709;DHT22;38606;52.986;6.980;2022-08-23T03:56:59;16.30;99.90
52709;DHT22;38606;52.986;6.980;2022-08-23T03:59:27;15.80;99.90
52709;DHT22;38606;52.986;6.980;2022-08-23T04:01:54;16.00;99.90
52709;DHT22;38606;52.986;6.980;2022-08-23T04:04:20;16.10;99.90
52709;DHT22;38606;52.986;6.980;2022-08-23T04:06:46;15.90;99.90
52709;DHT22;38606;52.986;6.980;2022-08-23T04:09:13;15.70;99.90
52709;DHT22;38606;52.986;6.980;2022-08-23T04:11:39;15.90;99.90
52709;DHT22;38606;52.986;6.980;2022-08-23T04:14:05;15.80;99.90
52709;DHT22;38606;52.986;6.980;2022-08-23T04:16:32;15.70;99.90
52709;DHT22;38606;52.986;6.980;2022-08-23T04:19:09;15.90;99.90
52709;DHT22;38606;52.986;6.980;2022-08-23T04:21:38;15.90;99.90
52709;DHT22;38606;52.986;6.980;2022-08-23T04:24:04;15.70;99.90
52709;DHT22;38606;52.986;6.980;2022-08-23T04:26:29;15.80;99.90
52709;DHT22;38606;52.986;6.980;2022-08-23T04:28:55;15.80;99.90
52709;DHT22;38606;52.986;6.980;2022-08-23T04:31:21;15.70;99.90
52709;DHT22;38606;52.986;6.980;2022-08-23T04:33:47;16.00;99.90
52709;DHT22;38606;52.986;6.980;2022-08-23T04:36:14;15.90;99.90
52709;DHT22;38606;52.986;6.980;2022-08-23T04:38:39;15.60;99.90
52709;DHT22;38606;52.986;6.980;2022-08-23T04:41:05;15.80;99.90
52709;DHT22;38606;52.986;6.980;2022-08-23T04:43:50;16.00;99.90
52709;DHT22;38606;52.986;6.980;2022-08-23T04:46:16;15.70;99.90
52709;DHT22;38606;52.986;6.980;2022-08-23T04:48:43;15.60;99.90
52709;DHT22;38606;52.986;6.980;2022-08-23T04:51:10;15.90;99.90
52709;DHT22;38606;52.986;6.980;2022-08-23T04:53:36;15.70;99.90
52709;DHT22;38606;52.986;6.980;2022-08-23T04:56:03;15.80;99.90
52709;DHT22;38606;52.986;6.980;2022-08-23T04:58:30;15.90;99.90
52709;DHT22;38606;52.986;6.980;2022-08-23T05:00:58;15.70;99.90
52709;DHT22;38606;52.986;6.980;2022-08-23T05:03:25;15.80;99.90
52709;DHT22;38606;52.986;6.980;2022-08-23T05:05:52;15.90;99.90
52709;DHT22;38606;52.986;6.980;2022-08-23T05:08:18;15.70;99.90
52709;DHT22;38606;52.986;6.980;2022-08-23T05:10:44;15.70;99.90
52709;DHT22;38606;52.986;6.980;2022-08-23T05:13:11;15.80;99.90
52709;DHT22;38606;52.986;6.980;2022-08-23T05:15:37;15.90;99.90
52709;DHT22;38606;52.986;6.980;2022-08-23T05:18:04;15.70;99.90
52709;DHT22;38606;52.986;6.980;2022-08-23T05:20:30;15.80;99.90
52709;DHT22;38606;52.986;6.980;2022-08-23T05:22:55;16.30;99.90
52709;DHT22;38606;52.986;6.980;2022-08-23T05:25:21;16.10;99.90
52709;DHT22;38606;52.986;6.980;2022-08-23T05:27:47;16.10;99.90
52709;DHT22;38606;52.986;6.980;2022-08-23T05:30:13;16.20;99.90
52709;DHT22;38606;52.986;6.980;2022-08-23T05:32:39;16.30;99.90
52709;DHT22;38606;52.986;6.980;2022-08-23T05:35:05;16.30;99.90
52709;DHT22;38606;52.986;6.980;2022-08-23T05:37:31;16.30;99.90
52709;DHT22;38606;52.986;6.980;2022-08-23T05:39:57;16.60;99.90
52709;DHT22;38606;52.986;6.980;2022-08-23T05:42:23;16.40;99.90
52709;DHT22;38606;52.986;6.980;2022-08-23T05:44:49;16.40;99.90
52709;DHT22;38606;52.986;6.980;2022-08-23T05:47:16;16.70;99.90
52709;DHT22;38606;52.986;6.980;2022-08-23T05:49:42;16.50;99.90
52709;DHT22;38606;52.986;6.980;2022-08-23T05:52:10;16.80;99.90
52709;DHT22;38606;52.986;6.980;2022-08-23T05:54:36;16.80;99.90
52709;DHT22;38606;52.986;6.980;2022-08-23T05:57:02;16.90;99.90
52709;DHT22;38606;52.986;6.980;2022-08-23T05:59:28;17.10;99.90
52709;DHT22;38606;52.986;6.980;2022-08-23T06:01:54;17.20;99.90
52709;DHT22;38606;52.986;6.980;2022-08-23T06:04:21;17.10;99.90
52709;DHT22;38606;52.986;6.980;2022-08-23T06:06:46;17.20;99.90
52709;DHT22;38606;52.986;6.980;2022-08-23T06:09:14;17.30;99.90
52709;DHT22;38606;52.986;6.980;2022-08-23T06:11:42;17.50;99.90
52709;DHT22;38606;52.986;6.980;2022-08-23T06:14:09;17.50;99.90
52709;DHT22;38606;52.986;6.980;2022-08-23T06:16:40;17.60;99.90
52709;DHT22;38606;52.986;6.980;2022-08-23T06:19:08;17.70;99.90
52709;DHT22;38606;52.986;6.980;2022-08-23T06:21:35;17.80;99.90
52709;DHT22;38606;52.986;6.980;2022-08-23T06:24:01;17.80;99.90
52709;DHT22;38606;52.986;6.980;2022-08-23T06:26:33;17.90;99.90
52709;DHT22;38606;52.986;6.980;2022-08-23T06:29:09;17.90;99.90
52709;DHT22;38606;52.986;6.980;2022-08-23T06:31:39;18.00;99.90
52709;DHT22;38606;52.986;6.980;2022-08-23T06:34:16;17.90;99.90
52709;DHT22;38606;52.986;6.980;2022-08-23T06:36:43;18.40;99.90
52709;DHT22;38606;52.986;6.980;2022-08-23T06:39:10;18.70;99.90
52709;DHT22;38606;52.986;6.980;2022-08-23T06:41:36;18.40;99.90
52709;DHT22;38606;52.986;6.980;2022-08-23T06:44:02;18.80;99.90
52709;DHT22;38606;52.986;6.980;2022-08-23T06:46:29;19.00;99.90
52709;DHT22;38606;52.986;6.980;2022-08-23T06:48:55;19.20;99.90
52709;DHT22;38606;52.986;6.980;2022-08-23T06:51:31;18.90;99.90
52709;DHT22;38606;52.986;6.980;2022-08-23T06:53:59;19.30;99.90
52709;DHT22;38606;52.986;6.980;2022-08-23T06:56:26;19.40;99.90
52709;DHT22;38606;52.986;6.980;2022-08-23T06:58:53;19.40;99.90
52709;DHT22;38606;52.986;6.980;2022-08-23T07:03:54;19.70;99.90
52709;DHT22;38606;52.986;6.980;2022-08-23T07:06:25;19.80;99.90
52709;DHT22;38606;52.986;6.980;2022-08-23T07:08:51;19.90;99.90
52709;DHT22;38606;52.986;6.980;2022-08-23T07:11:18;20.20;99.90
52709;DHT22;38606;52.986;6.980;2022-08-23T07:13:44;20.30;99.90
52709;DHT22;38606;52.986;6.980;2022-08-23T07:16:10;20.30;99.90
52709;DHT22;38606;52.986;6.980;2022-08-23T07:18:37;20.80;99.90
52709;DHT22;38606;52.986;6.980;2022-08-23T07:21:04;20.70;99.90
52709;DHT22;38606;52.986;6.980;2022-08-23T07:23:32;20.90;99.90
52709;DHT22;38606;52.986;6.980;2022-08-23T07:26:06;20.90;99.90
52709;DHT22;38606;52.986;6.980;2022-08-23T07:28:32;21.10;99.90
52709;DHT22;38606;52.986;6.980;2022-08-23T07:33:42;21.30;99.90
52709;DHT22;38606;52.986;6.980;2022-08-23T07:36:09;21.30;99.90
52709;DHT22;38606;52.986;6.980;2022-08-23T07:38:35;21.40;99.90
52709;DHT22;38606;52.986;6.980;2022-08-23T07:41:02;21.30;99.90
52709;DHT22;38606;52.986;6.980;2022-08-23T07:43:30;21.30;99.90
52709;DHT22;38606;52.986;6.980;2022-08-23T07:45:56;21.50;99.90
52709;DHT22;38606;52.986;6.980;2022-08-23T07:48:22;21.70;99.90
52709;DHT22;38606;52.986;6.980;2022-08-23T07:50:55;21.60;99.90
52709;DHT22;38606;52.986;6.980;2022-08-23T07:53:22;22.00;99.90
52709;DHT22;38606;52.986;6.980;2022-08-23T07:55:48;22.10;99.90
52709;DHT22;38606;52.986;6.980;2022-08-23T07:58:13;22.40;99.90
52709;DHT22;38606;52.986;6.980;2022-08-23T08:00:39;22.10;99.90
52709;DHT22;38606;52.986;6.980;2022-08-23T08:03:05;22.40;99.90
52709;DHT22;38606;52.986;6.980;2022-08-23T08:05:32;22.80;99.90
52709;DHT22;38606;52.986;6.980;2022-08-23T08:07:57;22.80;99.90
52709;DHT22;38606;52.986;6.980;2022-08-23T08:10:23;23.10;99.90
52709;DHT22;38606;52.986;6.980;2022-08-23T08:12:49;23.10;99.90
52709;DHT22;38606;52.986;6.980;2022-08-23T08:15:16;23.30;99.90
52709;DHT22;38606;52.986;6.980;2022-08-23T08:17:45;23.50;99.90
52709;DHT22;38606;52.986;6.980;2022-08-23T08:20:11;23.60;99.90
52709;DHT22;38606;52.986;6.980;2022-08-23T08:22:37;23.00;99.90
52709;DHT22;38606;52.986;6.980;2022-08-23T08:25:03;23.80;99.90
52709;DHT22;38606;52.986;6.980;2022-08-23T08:27:29;23.80;99.90
52709;DHT22;38606;52.986;6.980;2022-08-23T08:29:54;24.10;99.90
52709;DHT22;38606;52.986;6.980;2022-08-23T08:32:20;23.90;99.90
52709;DHT22;38606;52.986;6.980;2022-08-23T08:34:46;24.00;99.90
52709;DHT22;38606;52.986;6.980;2022-08-23T08:37:11;24.30;99.90
52709;DHT22;38606;52.986;6.980;2022-08-23T08:39:37;24.40;99.90
52709;DHT22;38606;52.986;6.980;2022-08-23T08:45:10;24.80;99.90
52709;DHT22;38606;52.986;6.980;2022-08-23T08:47:50;24.70;99.90
52709;DHT22;38606;52.986;6.980;2022-08-23T08:50:25;25.00;99.90
52709;DHT22;38606;52.986;6.980;2022-08-23T08:53:06;24.90;99.90
52709;DHT22;38606;52.986;6.980;2022-08-23T08:55:37;25.10;99.90
52709;DHT22;38606;52.986;6.980;2022-08-23T08:58:05;25.20;99.90
52709;DHT22;38606;52.986;6.980;2022-08-23T09:00:35;25.30;99.90
52709;DHT22;38606;52.986;6.980;2022-08-23T09:03:09;25.50;99.90
52709;DHT22;38606;52.986;6.980;2022-08-23T09:05:38;25.30;99.90
52709;DHT22;38606;52.986;6.980;2022-08-23T09:14:08;26.00;99.90
52709;DHT22;38606;52.986;6.980;2022-08-23T09:19:09;25.80;99.90
52709;DHT22;38606;52.986;6.980;2022-08-23T09:22:00;26.30;99.90
52709;DHT22;38606;52.986;6.980;2022-08-23T09:24:27;26.20;99.90
52709;DHT22;38606;52.986;6.980;2022-08-23T09:26:54;26.30;99.90
52709;DHT22;38606;52.986;6.980;2022-08-23T09:29:29;26.50;99.90
52709;DHT22;38606;52.986;6.980;2022-08-23T09:31:58;26.50;99.90
52709;DHT22;38606;52.986;6.980;2022-08-23T09:42:36;26.40;97.80
52709;DHT22;38606;52.986;6.980;2022-08-23T09:45:24;26.90;97.90
52709;DHT22;38606;52.986;6.980;2022-08-23T09:47:51;26.60;95.80
52709;DHT22;38606;52.986;6.980;2022-08-23T09:50:38;26.60;98.70
52709;DHT22;38606;52.986;6.980;2022-08-23T09:53:12;26.70;97.00
52709;DHT22;38606;52.986;6.980;2022-08-23T09:55:42;27.10;99.40
52709;DHT22;38606;52.986;6.980;2022-08-23T09:58:36;27.00;98.40
52709;DHT22;38606;52.986;6.980;2022-08-23T10:01:11;27.00;97.70
52709;DHT22;38606;52.986;6.980;2022-08-23T10:03:39;27.20;96.60
52709;DHT22;38606;52.986;6.980;2022-08-23T10:06:05;27.40;95.00
52709;DHT22;38606;52.986;6.980;2022-08-23T10:08:48;27.10;92.80
52709;DHT22;38606;52.986;6.980;2022-08-23T10:11:19;27.00;91.80
52709;DHT22;38606;52.986;6.980;2022-08-23T10:13:48;27.50;92.60
52709;DHT22;38606;52.986;6.980;2022-08-23T10:27:43;27.60;89.10
52709;DHT22;38606;52.986;6.980;2022-08-23T10:30:50;27.80;89.30
52709;DHT22;38606;52.986;6.980;2022-08-23T10:36:33;28.00;85.60
52709;DHT22;38606;52.986;6.980;2022-08-23T10:39:23;27.90;89.00
52709;DHT22;38606;52.986;6.980;2022-08-23T10:45:10;28.20;84.60
52709;DHT22;38606;52.986;6.980;2022-08-23T10:48:02;28.20;84.70
52709;DHT22;38606;52.986;6.980;2022-08-23T10:50:47;28.40;85.20
52709;DHT22;38606;52.986;6.980;2022-08-23T10:53:16;28.10;85.10
52709;DHT22;38606;52.986;6.980;2022-08-23T10:55:56;28.50;85.30
52709;DHT22;38606;52.986;6.980;2022-08-23T10:58:53;28.40;79.60
52709;DHT22;38606;52.986;6.980;2022-08-23T11:04:45;28.40;77.90
52709;DHT22;38606;52.986;6.980;2022-08-23T11:07:19;28.50;78.80
52709;DHT22;38606;52.986;6.980;2022-08-23T11:09:56;28.60;79.70
52709;DHT22;38606;52.986;6.980;2022-08-23T11:12:27;28.50;78.50
52709;DHT22;38606;52.986;6.980;2022-08-23T11:23:15;28.80;76.90
52709;DHT22;38606;52.986;6.980;2022-08-23T11:25:43;28.60;76.20
52709;DHT22;38606;52.986;6.980;2022-08-23T11:31:32;29.20;75.40
52709;DHT22;38606;52.986;6.980;2022-08-23T11:34:05;28.90;70.70
52709;DHT22;38606;52.986;6.980;2022-08-23T11:36:34;29.30;73.00
52709;DHT22;38606;52.986;6.980;2022-08-23T11:39:13;29.10;73.60
52709;DHT22;38606;52.986;6.980;2022-08-23T11:44:34;29.20;72.80
52709;DHT22;38606;52.986;6.980;2022-08-23T11:47:05;29.30;73.60
52709;DHT22;38606;52.986;6.980;2022-08-23T11:49:43;29.50;71.60
52709;DHT22;38606;52.986;6.980;2022-08-23T11:52:43;29.20;70.20
52709;DHT22;38606;52.986;6.980;2022-08-23T12:01:04;29.50;71.20
52709;DHT22;38606;52.986;6.980;2022-08-23T12:08:53;29.60;70.10
52709;DHT22;38606;52.986;6.980;2022-08-23T12:11:23;29.70;71.30
52709;DHT22;38606;52.986;6.980;2022-08-23T12:18:52;29.70;69.90
52709;DHT22;38606;52.986;6.980;2022-08-23T12:29:32;29.90;69.60
52709;DHT22;38606;52.986;6.980;2022-08-23T12:37:40;30.00;68.00
52709;DHT22;38606;52.986;6.980;2022-08-23T12:40:13;30.00;67.40
52709;DHT22;38606;52.986;6.980;2022-08-23T12:42:40;30.00;68.20
52709;DHT22;38606;52.986;6.980;2022-08-23T12:45:21;29.80;68.50
52709;DHT22;38606;52.986;6.980;2022-08-23T12:48:01;30.10;69.80
52709;DHT22;38606;52.986;6.980;2022-08-23T12:50:33;29.90;67.70
52709;DHT22;38606;52.986;6.980;2022-08-23T12:53:09;30.00;67.90
52709;DHT22;38606;52.986;6.980;2022-08-23T12:55:38;30.10;67.40
52709;DHT22;38606;52.986;6.980;2022-08-23T12:58:06;30.20;69.30
52709;DHT22;38606;52.986;6.980;2022-08-23T13:03:20;30.10;66.80
52709;DHT22;38606;52.986;6.980;2022-08-23T13:05:50;30.10;67.70
52709;DHT22;38606;52.986;6.980;2022-08-23T13:08:39;30.00;68.00
52709;DHT22;38606;52.986;6.980;2022-08-23T13:11:08;30.30;67.40
52709;DHT22;38606;52.986;6.980;2022-08-23T13:13:38;29.90;67.60
52709;DHT22;38606;52.986;6.980;2022-08-23T13:19:25;30.10;66.20
52709;DHT22;38606;52.986;6.980;2022-08-23T13:25:29;30.00;64.10
52709;DHT22;38606;52.986;6.980;2022-08-23T13:27:56;30.20;66.20
52709;DHT22;38606;52.986;6.980;2022-08-23T13:30:23;29.90;66.50
52709;DHT22;38606;52.986;6.980;2022-08-23T13:33:15;28.80;66.60
52709;DHT22;38606;52.986;6.980;2022-08-23T13:35:42;30.20;66.50
52709;DHT22;38606;52.986;6.980;2022-08-23T13:38:30;30.20;67.00
52709;DHT22;38606;52.986;6.980;2022-08-23T13:41:08;29.90;67.00
52709;DHT22;38606;52.986;6.980;2022-08-23T13:43:39;30.20;65.50
52709;DHT22;38606;52.986;6.980;2022-08-23T13:46:45;29.90;66.20
52709;DHT22;38606;52.986;6.980;2022-08-23T13:49:18;29.90;64.10
52709;DHT22;38606;52.986;6.980;2022-08-23T13:54:27;30.00;67.20
52709;DHT22;38606;52.986;6.980;2022-08-23T13:56:58;30.00;67.10
52709;DHT22;38606;52.986;6.980;2022-08-23T13:59:31;29.70;67.10
52709;DHT22;38606;52.986;6.980;2022-08-23T14:02:04;29.80;67.00
52709;DHT22;38606;52.986;6.980;2022-08-23T14:04:31;29.70;67.00
52709;DHT22;38606;52.986;6.980;2022-08-23T14:06:57;29.80;67.10
52709;DHT22;38606;52.986;6.980;2022-08-23T14:09:22;29.70;66.90
52709;DHT22;38606;52.986;6.980;2022-08-23T14:11:52;29.90;68.80
52709;DHT22;38606;52.986;6.980;2022-08-23T14:14:18;29.80;68.50
52709;DHT22;38606;52.986;6.980;2022-08-23T14:16:43;29.70;68.90
52709;DHT22;38606;52.986;6.980;2022-08-23T14:19:10;30.00;68.20
52709;DHT22;38606;52.986;6.980;2022-08-23T14:21:36;29.60;68.70
52709;DHT22;38606;52.986;6.980;2022-08-23T14:24:02;29.70;68.20
52709;DHT22;38606;52.986;6.980;2022-08-23T14:26:28;29.60;67.70
52709;DHT22;38606;52.986;6.980;2022-08-23T14:28:54;29.90;66.70
52709;DHT22;38606;52.986;6.980;2022-08-23T14:31:20;29.70;67.80
52709;DHT22;38606;52.986;6.980;2022-08-23T14:33:46;29.40;66.90
52709;DHT22;38606;52.986;6.980;2022-08-23T14:36:13;29.40;67.40
52709;DHT22;38606;52.986;6.980;2022-08-23T14:38:39;29.40;69.10
52709;DHT22;38606;52.986;6.980;2022-08-23T14:41:10;29.60;70.00
52709;DHT22;38606;52.986;6.980;2022-08-23T14:43:38;29.40;67.50
52709;DHT22;38606;52.986;6.980;2022-08-23T14:46:03;29.50;68.10
52709;DHT22;38606;52.986;6.980;2022-08-23T14:48:29;29.40;68.10
52709;DHT22;38606;52.986;6.980;2022-08-23T14:50:56;29.40;68.20
52709;DHT22;38606;52.986;6.980;2022-08-23T14:53:27;29.40;68.90
52709;DHT22;38606;52.986;6.980;2022-08-23T14:55:54;29.50;70.30
52709;DHT22;38606;52.986;6.980;2022-08-23T14:58:21;29.20;69.70
52709;DHT22;38606;52.986;6.980;2022-08-23T15:00:47;29.30;69.80
52709;DHT22;38606;52.986;6.980;2022-08-23T15:03:19;29.20;69.60
52709;DHT22;38606;52.986;6.980;2022-08-23T15:05:47;29.30;72.00
52709;DHT22;38606;52.986;6.980;2022-08-23T15:08:12;29.40;70.20
52709;DHT22;38606;52.986;6.980;2022-08-23T15:10:38;29.00;70.00
52709;DHT22;38606;52.986;6.980;2022-08-23T15:13:04;29.10;70.50
52709;DHT22;38606;52.986;6.980;2022-08-23T15:15:31;29.10;70.40
52709;DHT22;38606;52.986;6.980;2022-08-23T15:17:59;28.90;70.10
52709;DHT22;38606;52.986;6.980;2022-08-23T15:20:32;28.90;70.60
52709;DHT22;38606;52.986;6.980;2022-08-23T15:22:59;29.00;71.50
52709;DHT22;38606;52.986;6.980;2022-08-23T15:25:27;28.90;70.20
52709;DHT22;38606;52.986;6.980;2022-08-23T15:27:53;28.90;70.60
52709;DHT22;38606;52.986;6.980;2022-08-23T15:30:19;29.00;70.20
52709;DHT22;38606;52.986;6.980;2022-08-23T15:32:45;28.90;69.80
52709;DHT22;38606;52.986;6.980;2022-08-23T15:35:11;28.70;69.60
52709;DHT22;38606;52.986;6.980;2022-08-23T15:37:37;28.70;69.80
52709;DHT22;38606;52.986;6.980;2022-08-23T15:40:04;28.70;70.80
52709;DHT22;38606;52.986;6.980;2022-08-23T15:42:31;28.70;70.60
52709;DHT22;38606;52.986;6.980;2022-08-23T15:44:56;28.60;71.20
52709;DHT22;38606;52.986;6.980;2022-08-23T15:47:30;28.70;70.50
52709;DHT22;38606;52.986;6.980;2022-08-23T15:49:57;28.40;69.80
52709;DHT22;38606;52.986;6.980;2022-08-23T15:52:24;28.30;69.50
52709;DHT22;38606;52.986;6.980;2022-08-23T15:54:50;28.50;70.20
52709;DHT22;38606;52.986;6.980;2022-08-23T15:57:20;28.30;70.50
52709;DHT22;38606;52.986;6.980;2022-08-23T15:59:48;28.60;72.00
52709;DHT22;38606;52.986;6.980;2022-08-23T16:02:14;28.20;71.70
52709;DHT22;38606;52.986;6.980;2022-08-23T16:04:40;28.20;71.90
52709;DHT22;38606;52.986;6.980;2022-08-23T16:07:08;28.40;72.40
52709;DHT22;38606;52.986;6.980;2022-08-23T16:09:35;28.30;72.60
52709;DHT22;38606;52.986;6.980;2022-08-23T16:12:03;28.20;72.80
52709;DHT22;38606;52.986;6.980;2022-08-23T16:14:29;28.10;73.50
52709;DHT22;38606;52.986;6.980;2022-08-23T16:16:57;28.10;72.80
52709;DHT22;38606;52.986;6.980;2022-08-23T16:19:24;27.90;73.50
52709;DHT22;38606;52.986;6.980;2022-08-23T16:21:51;27.90;72.60
52709;DHT22;38606;52.986;6.980;2022-08-23T16:24:19;27.80;73.70
52709;DHT22;38606;52.986;6.980;2022-08-23T16:26:45;27.70;73.80
52709;DHT22;38606;52.986;6.980;2022-08-23T16:29:12;27.70;76.20
52709;DHT22;38606;52.986;6.980;2022-08-23T16:31:40;27.80;77.30
52709;DHT22;38606;52.986;6.980;2022-08-23T16:34:09;27.60;75.80
52709;DHT22;38606;52.986;6.980;2022-08-23T16:36:36;27.50;76.50
52709;DHT22;38606;52.986;6.980;2022-08-23T16:39:03;27.70;78.90
52709;DHT22;38606;52.986;6.980;2022-08-23T16:41:29;27.60;77.70
52709;DHT22;38606;52.986;6.980;2022-08-23T16:43:55;27.70;76.00
52709;DHT22;38606;52.986;6.980;2022-08-23T16:46:22;27.40;78.20
52709;DHT22;38606;52.986;6.980;2022-08-23T16:48:48;27.50;77.70
52709;DHT22;38606;52.986;6.980;2022-08-23T16:51:14;27.50;77.70
52709;DHT22;38606;52.986;6.980;2022-08-23T16:53:41;27.40;78.60
52709;DHT22;38606;52.986;6.980;2022-08-23T16:56:07;27.50;79.50
52709;DHT22;38606;52.986;6.980;2022-08-23T16:58:33;27.50;79.60
52709;DHT22;38606;52.986;6.980;2022-08-23T17:00:59;27.30;80.20
52709;DHT22;38606;52.986;6.980;2022-08-23T17:03:25;27.50;78.90
52709;DHT22;38606;52.986;6.980;2022-08-23T17:05:51;27.30;78.50
52709;DHT22;38606;52.986;6.980;2022-08-23T17:08:17;27.50;80.60
52709;DHT22;38606;52.986;6.980;2022-08-23T17:10:43;27.20;80.90
52709;DHT22;38606;52.986;6.980;2022-08-23T17:13:11;27.30;81.20
52709;DHT22;38606;52.986;6.980;2022-08-23T17:15:38;27.30;80.80
52709;DHT22;38606;52.986;6.980;2022-08-23T17:18:04;27.40;81.40
52709;DHT22;38606;52.986;6.980;2022-08-23T17:20:33;27.30;83.80
52709;DHT22;38606;52.986;6.980;2022-08-23T17:22:59;27.20;83.70
52709;DHT22;38606;52.986;6.980;2022-08-23T17:25:25;27.10;84.00
52709;DHT22;38606;52.986;6.980;2022-08-23T17:27:52;27.20;84.70
52709;DHT22;38606;52.986;6.980;2022-08-23T17:30:20;27.10;86.60
52709;DHT22;38606;52.986;6.980;2022-08-23T17:32:47;26.80;88.10